Time;durP1;ratioP1;P1;durP2;ratioP2;P2;SDS_P1;SDS_P2;PMS_P1;PMS_P2;Temp;Humidity;BMP_temperature;BMP_pressure;BME280_temperature;BME280_humidity;BME280_pressure;Samples;Min_cycle;Max_cycle;Signal;HPM_P1;HPM_P2
2022/07/30 00:00:41;;;;;;;;;;;22.30;80.20;;;;;;4936844;29;19958;-95
2022/07/30 00:03:06;;;;;;;;;;;22.40;80.30;;;;;;4919867;29;19942;-95
2022/07/30 00:05:34;;;;;;;;;;;22.40;80.00;;;;;;4936362;29;20437;-96
2022/07/30 00:08:00;;;;;;;;;;;22.40;79.80;;;;;;4936464;29;20475;-95
2022/07/30 00:10:26;;;;;;;;;;;22.40;80.60;;;;;;4936241;29;19944;-95
2022/07/30 00:12:52;;;;;;;;;;;22.40;80.70;;;;;;4936855;29;19997;-96
2022/07/30 00:15:18;;;;;;;;;;;22.50;80.30;;;;;;4936239;29;19949;-95
2022/07/30 00:17:44;;;;;;;;;;;22.60;80.30;;;;;;4919097;29;19957;-95
2022/07/30 00:20:10;;;;;;;;;;;22.60;80.00;;;;;;4936408;29;20004;-96
2022/07/30 00:22:36;;;;;;;;;;;22.50;80.30;;;;;;4936151;29;19952;-96
2022/07/30 00:25:02;;;;;;;;;;;22.50;80.40;;;;;;4936442;29;20041;-95
2022/07/30 00:27:29;;;;;;;;;;;22.50;80.30;;;;;;4919070;29;19950;-96
2022/07/30 00:29:55;;;;;;;;;;;22.50;80.10;;;;;;4920054;29;20031;-96
2022/07/30 00:32:21;;;;;;;;;;;22.50;79.90;;;;;;4918947;29;19953;-95
2022/07/30 00:34:47;;;;;;;;;;;22.50;79.80;;;;;;4936917;29;19944;-96
2022/07/30 00:37:12;;;;;;;;;;;22.50;80.10;;;;;;4919243;29;19964;-96
2022/07/30 00:39:38;;;;;;;;;;;22.50;80.20;;;;;;4936282;29;20005;-96
2022/07/30 00:42:04;;;;;;;;;;;22.60;80.20;;;;;;4939188;29;20422;-96
2022/07/30 00:44:30;;;;;;;;;;;22.50;80.10;;;;;;4939749;29;20032;-96
2022/07/30 00:46:56;;;;;;;;;;;22.30;79.90;;;;;;4939454;29;19982;-96
2022/07/30 00:49:22;;;;;;;;;;;22.20;80.60;;;;;;4939638;29;19950;-96
2022/07/30 00:51:48;;;;;;;;;;;22.20;81.10;;;;;;4939298;29;19961;-96
2022/07/30 00:54:14;;;;;;;;;;;22.20;81.10;;;;;;4922153;29;19949;-96
2022/07/30 00:56:41;;;;;;;;;;;22.20;80.80;;;;;;4939401;29;19951;-96
2022/07/30 00:59:07;;;;;;;;;;;22.20;80.90;;;;;;4939592;29;19939;-96
2022/07/30 01:01:33;;;;;;;;;;;22.10;81.00;;;;;;4939110;29;19990;-96
2022/07/30 01:03:59;;;;;;;;;;;22.10;81.10;;;;;;4939393;29;19976;-96
2022/07/30 01:06:25;;;;;;;;;;;22.10;80.90;;;;;;4939270;29;20369;-96
2022/07/30 01:08:51;;;;;;;;;;;22.10;81.10;;;;;;4939304;29;20445;-95
2022/07/30 01:11:17;;;;;;;;;;;22.00;81.10;;;;;;4939568;29;19941;-95
2022/07/30 01:13:43;;;;;;;;;;;21.80;81.30;;;;;;4939095;29;20010;-95
2022/07/30 01:16:09;;;;;;;;;;;21.80;81.90;;;;;;4939163;29;19944;-96
2022/07/30 01:21:22;;;;;;;;;;;21.70;82.30;;;;;;4938844;29;20053;-95
2022/07/30 01:23:49;;;;;;;;;;;21.70;82.60;;;;;;4922476;29;20379;-96
2022/07/30 01:26:18;;;;;;;;;;;21.60;83.00;;;;;;4938605;29;19988;-96
2022/07/30 01:28:49;;;;;;;;;;;21.70;83.10;;;;;;4939224;29;19949;-95
2022/07/30 01:31:16;;;;;;;;;;;21.70;82.80;;;;;;4921544;29;19949;-95
2022/07/30 01:33:43;;;;;;;;;;;21.70;83.00;;;;;;4921386;29;19952;-96
2022/07/30 01:36:13;;;;;;;;;;;21.50;82.30;;;;;;4921520;29;19990;-95
2022/07/30 01:38:40;;;;;;;;;;;21.30;83.20;;;;;;4939045;29;19941;-95
2022/07/30 01:41:06;;;;;;;;;;;21.30;83.70;;;;;;4938596;29;20431;-95
2022/07/30 01:43:34;;;;;;;;;;;21.30;84.10;;;;;;4938884;29;19943;-96
2022/07/30 01:46:01;;;;;;;;;;;21.30;84.10;;;;;;4921248;29;19942;-95
2022/07/30 01:48:26;;;;;;;;;;;21.30;84.20;;;;;;4938160;29;19977;-96
2022/07/30 01:50:53;;;;;;;;;;;21.30;84.30;;;;;;4938243;29;19937;-95
2022/07/30 01:53:23;;;;;;;;;;;21.30;84.70;;;;;;4938529;29;20041;-95
2022/07/30 01:55:49;;;;;;;;;;;21.30;84.60;;;;;;4938582;29;19941;-96
2022/07/30 01:58:16;;;;;;;;;;;21.10;84.10;;;;;;4938075;29;19984;-96
2022/07/30 02:00:43;;;;;;;;;;;20.90;84.80;;;;;;4938315;29;20009;-94
2022/07/30 02:03:09;;;;;;;;;;;20.80;86.10;;;;;;4920953;29;19996;-95
2022/07/30 02:05:35;;;;;;;;;;;20.80;87.20;;;;;;4938173;29;20390;-95
2022/07/30 02:08:21;;;;;;;;;;;20.70;87.30;;;;;;4938431;29;20096;-95
2022/07/30 02:10:52;;;;;;;;;;;20.70;87.90;;;;;;4907333;29;20429;-96
2022/07/30 02:13:23;;;;;;;;;;;20.80;88.00;;;;;;4938136;29;19985;-94
2022/07/30 02:15:49;;;;;;;;;;;20.80;87.60;;;;;;4937767;29;19941;-96
2022/07/30 02:18:17;;;;;;;;;;;20.80;87.10;;;;;;4938314;29;20391;-95
2022/07/30 02:20:45;;;;;;;;;;;21.00;86.80;;;;;;4920835;29;19965;-96
2022/07/30 02:23:12;;;;;;;;;;;21.00;86.50;;;;;;4938020;29;19953;-96
2022/07/30 02:25:40;;;;;;;;;;;21.00;86.00;;;;;;4937756;29;19972;-95
2022/07/30 02:28:09;;;;;;;;;;;21.00;85.60;;;;;;4938107;29;19945;-95
2022/07/30 02:30:36;;;;;;;;;;;20.90;85.50;;;;;;4937513;29;19951;-95
2022/07/30 02:33:04;;;;;;;;;;;20.90;85.50;;;;;;4920228;29;20410;-95
2022/07/30 02:35:31;;;;;;;;;;;20.90;85.50;;;;;;4937834;29;19958;-95
2022/07/30 02:37:57;;;;;;;;;;;20.90;85.70;;;;;;4937449;29;19945;-95
2022/07/30 02:40:22;;;;;;;;;;;20.90;85.70;;;;;;4937600;29;20436;-95
2022/07/30 02:42:49;;;;;;;;;;;21.00;85.70;;;;;;4937201;29;19946;-94
2022/07/30 02:45:16;;;;;;;;;;;21.00;85.50;;;;;;4920035;29;19950;-94
2022/07/30 02:47:43;;;;;;;;;;;21.00;85.30;;;;;;4937377;29;20061;-95
2022/07/30 02:50:09;;;;;;;;;;;21.00;85.40;;;;;;4937266;29;19949;-95
2022/07/30 02:52:35;;;;;;;;;;;21.00;85.50;;;;;;4937411;29;19948;-95
2022/07/30 02:55:01;;;;;;;;;;;21.00;85.60;;;;;;4937112;29;19993;-95
2022/07/30 02:57:28;;;;;;;;;;;20.80;84.30;;;;;;4920264;29;19952;-95
2022/07/30 02:59:54;;;;;;;;;;;20.60;84.50;;;;;;4937025;29;19944;-95
2022/07/30 03:02:22;;;;;;;;;;;20.30;85.00;;;;;;4937109;29;19938;-95
2022/07/30 03:04:49;;;;;;;;;;;20.30;85.80;;;;;;4936690;29;20349;-95
2022/07/30 03:07:15;;;;;;;;;;;20.30;86.50;;;;;;4936980;29;19938;-95
2022/07/30 03:09:41;;;;;;;;;;;20.30;86.80;;;;;;4919669;29;20043;-95
2022/07/30 03:12:08;;;;;;;;;;;20.40;86.60;;;;;;4920118;29;19949;-95
2022/07/30 03:14:34;;;;;;;;;;;20.40;86.70;;;;;;4936844;29;19961;-95
2022/07/30 03:17:01;;;;;;;;;;;20.50;86.80;;;;;;4919999;29;20386;-95
2022/07/30 03:19:29;;;;;;;;;;;20.40;86.50;;;;;;4936869;29;19942;-95
2022/07/30 03:21:55;;;;;;;;;;;20.40;86.40;;;;;;4919840;29;19972;-95
2022/07/30 03:24:24;;;;;;;;;;;20.40;86.20;;;;;;4936625;29;19951;-95
2022/07/30 03:26:54;;;;;;;;;;;20.40;86.40;;;;;;4920400;29;19950;-95
2022/07/30 03:29:21;;;;;;;;;;;20.30;86.30;;;;;;4936575;29;19948;-95
2022/07/30 03:31:47;;;;;;;;;;;20.30;86.30;;;;;;4936727;29;20411;-95
2022/07/30 03:34:13;;;;;;;;;;;20.30;86.40;;;;;;4936785;29;20463;-95
2022/07/30 03:36:40;;;;;;;;;;;20.40;86.30;;;;;;4936668;29;20005;-95
2022/07/30 03:39:06;;;;;;;;;;;20.40;85.90;;;;;;4919600;29;19952;-94
2022/07/30 03:41:32;;;;;;;;;;;20.50;85.90;;;;;;4936668;29;19969;-95
2022/07/30 03:44:01;;;;;;;;;;;20.40;85.80;;;;;;4936501;29;19989;-95
2022/07/30 03:46:27;;;;;;;;;;;20.50;85.90;;;;;;4936709;29;19939;-95
2022/07/30 03:48:53;;;;;;;;;;;20.50;85.50;;;;;;4936380;29;20026;-95
2022/07/30 03:51:19;;;;;;;;;;;20.30;84.20;;;;;;4936686;29;19981;-95
2022/07/30 03:53:45;;;;;;;;;;;20.20;84.10;;;;;;4936521;29;20478;-95
2022/07/30 03:56:13;;;;;;;;;;;20.10;84.10;;;;;;4936595;29;19968;-95
2022/07/30 03:58:39;;;;;;;;;;;20.00;85.00;;;;;;4936425;29;19937;-95
2022/07/30 04:01:07;;;;;;;;;;;19.90;84.70;;;;;;4936883;29;19960;-95
2022/07/30 04:03:33;;;;;;;;;;;19.70;86.00;;;;;;4919424;29;20010;-95
2022/07/30 04:05:59;;;;;;;;;;;19.70;86.70;;;;;;4936664;29;20403;-95
2022/07/30 04:08:26;;;;;;;;;;;19.70;87.30;;;;;;4936644;29;19957;-95
2022/07/30 04:10:51;;;;;;;;;;;19.80;87.80;;;;;;4936478;29;19948;-95
2022/07/30 04:13:17;;;;;;;;;;;19.80;87.90;;;;;;4936851;29;19940;-96
2022/07/30 04:16:08;;;;;;;;;;;19.90;87.90;;;;;;4937628;29;19944;-95
2022/07/30 04:18:39;;;;;;;;;;;19.90;87.90;;;;;;4940065;29;20054;-95
2022/07/30 04:21:06;;;;;;;;;;;19.90;87.50;;;;;;4940403;29;19966;-95
2022/07/30 04:23:32;;;;;;;;;;;19.90;87.40;;;;;;4939852;29;19937;-95
2022/07/30 04:26:01;;;;;;;;;;;20.00;86.90;;;;;;4940421;29;19950;-95
2022/07/30 04:28:28;;;;;;;;;;;19.90;86.70;;;;;;4923059;29;19981;-95
2022/07/30 04:30:54;;;;;;;;;;;19.90;86.80;;;;;;4940054;29;19939;-95
2022/07/30 04:33:20;;;;;;;;;;;19.90;86.90;;;;;;4940212;29;19946;-95
2022/07/30 04:35:45;;;;;;;;;;;19.90;87.10;;;;;;4922478;29;19970;-95
2022/07/30 04:38:13;;;;;;;;;;;20.00;87.50;;;;;;4939902;29;20003;-96
2022/07/30 04:40:39;;;;;;;;;;;20.00;87.80;;;;;;4923177;29;20049;-95
2022/07/30 04:43:05;;;;;;;;;;;20.10;88.00;;;;;;4939732;29;19942;-96
2022/07/30 04:45:31;;;;;;;;;;;20.10;87.90;;;;;;4922706;29;19952;-95
2022/07/30 04:47:57;;;;;;;;;;;20.10;87.80;;;;;;4954289;23;20020;-95
2022/07/30 04:50:24;;;;;;;;;;;20.10;87.30;;;;;;4922924;29;19997;-95
2022/07/30 04:52:50;;;;;;;;;;;19.90;87.80;;;;;;4939621;29;19986;-95
2022/07/30 04:55:17;;;;;;;;;;;19.90;88.10;;;;;;4939312;29;19938;-96
2022/07/30 04:57:44;;;;;;;;;;;20.10;88.30;;;;;;4921890;29;20008;-95
2022/07/30 05:00:10;;;;;;;;;;;20.30;88.10;;;;;;4939045;29;19960;-95
2022/07/30 05:02:36;;;;;;;;;;;20.30;87.80;;;;;;4939283;29;20168;-95
2022/07/30 05:05:03;;;;;;;;;;;20.50;87.60;;;;;;4939409;29;19965;-95
2022/07/30 05:07:29;;;;;;;;;;;20.60;87.30;;;;;;4938711;29;19953;-95
2022/07/30 05:09:58;;;;;;;;;;;20.80;87.00;;;;;;4922055;29;19948;-95
2022/07/30 05:12:36;;;;;;;;;;;20.90;86.40;;;;;;4939289;29;19948;-96
2022/07/30 05:15:04;;;;;;;;;;;21.00;85.80;;;;;;4938925;29;19939;-95
2022/07/30 05:17:30;;;;;;;;;;;21.20;85.40;;;;;;4921807;29;20033;-96
2022/07/30 05:19:55;;;;;;;;;;;21.20;84.80;;;;;;4922523;29;20413;-96
2022/07/30 05:22:21;;;;;;;;;;;21.40;84.30;;;;;;4922578;29;19956;-96
2022/07/30 05:24:46;;;;;;;;;;;21.40;83.60;;;;;;4939098;29;19954;-96
2022/07/30 05:27:12;;;;;;;;;;;21.60;82.20;;;;;;4938826;29;19947;-95
2022/07/30 05:29:38;;;;;;;;;;;21.70;82.40;;;;;;4939152;29;20364;-95
2022/07/30 05:32:04;;;;;;;;;;;21.80;82.50;;;;;;4938693;29;19985;-95
2022/07/30 05:34:29;;;;;;;;;;;21.90;82.70;;;;;;4922382;29;19993;-96
2022/07/30 05:36:55;;;;;;;;;;;21.90;81.80;;;;;;4938814;29;19960;-96
2022/07/30 05:39:20;;;;;;;;;;;22.00;81.10;;;;;;4939061;29;19940;-96
2022/07/30 05:41:46;;;;;;;;;;;22.00;81.40;;;;;;4921324;29;20066;-96
2022/07/30 05:44:11;;;;;;;;;;;22.00;81.40;;;;;;4938752;29;20415;-95
2022/07/30 05:46:37;;;;;;;;;;;22.10;80.50;;;;;;4938483;29;19945;-95
2022/07/30 05:49:03;;;;;;;;;;;22.10;79.20;;;;;;4938927;29;19945;-96
2022/07/30 05:51:28;;;;;;;;;;;22.30;79.10;;;;;;4938590;29;20310;-95
2022/07/30 05:53:54;;;;;;;;;;;22.30;78.80;;;;;;4921404;29;19945;-96
2022/07/30 05:56:19;;;;;;;;;;;22.40;78.50;;;;;;4938279;29;19945;-96
2022/07/30 05:58:45;;;;;;;;;;;22.50;78.70;;;;;;4921421;29;19967;-96
2022/07/30 06:01:11;;;;;;;;;;;22.60;78.60;;;;;;4938588;29;20052;-96
2022/07/30 06:03:37;;;;;;;;;;;22.70;78.50;;;;;;4938057;29;19943;-96
2022/07/30 06:06:06;;;;;;;;;;;22.80;77.10;;;;;;4938574;29;20041;-96
2022/07/30 06:08:31;;;;;;;;;;;22.90;77.00;;;;;;4938134;29;20315;-96
2022/07/30 06:10:57;;;;;;;;;;;22.90;76.60;;;;;;4922043;29;19958;-96
2022/07/30 06:13:23;;;;;;;;;;;22.90;76.40;;;;;;4937955;29;19942;-96
2022/07/30 06:15:49;;;;;;;;;;;23.00;76.20;;;;;;4938322;29;19941;-96
2022/07/30 06:18:15;;;;;;;;;;;23.00;75.70;;;;;;4937834;29;19938;-96
2022/07/30 06:20:40;;;;;;;;;;;23.00;75.10;;;;;;4938113;29;20083;-96
2022/07/30 06:23:07;;;;;;;;;;;23.10;75.30;;;;;;4920613;29;19956;-96
2022/07/30 06:25:33;;;;;;;;;;;23.20;75.40;;;;;;4920950;29;19942;-96
2022/07/30 06:27:58;;;;;;;;;;;23.20;74.80;;;;;;4920648;29;19999;-96
2022/07/30 06:30:25;;;;;;;;;;;23.30;74.20;;;;;;4920996;29;19947;-96
2022/07/30 06:32:50;;;;;;;;;;;23.40;74.00;;;;;;4937801;29;19951;-96
2022/07/30 06:35:18;;;;;;;;;;;23.50;73.60;;;;;;4920179;29;20519;-96
2022/07/30 06:37:44;;;;;;;;;;;23.60;73.10;;;;;;4937152;29;19979;-95
2022/07/30 06:40:10;;;;;;;;;;;23.60;72.70;;;;;;4937394;29;20062;-96
2022/07/30 06:42:36;;;;;;;;;;;23.70;72.80;;;;;;4938085;29;20044;-96
2022/07/30 06:45:02;;;;;;;;;;;23.80;72.60;;;;;;4937461;29;19951;-96
2022/07/30 06:47:33;;;;;;;;;;;23.80;72.30;;;;;;4937531;29;19973;-96
2022/07/30 06:49:59;;;;;;;;;;;23.90;71.90;;;;;;4920219;29;20053;-96
2022/07/30 06:52:25;;;;;;;;;;;24.00;72.10;;;;;;4937186;29;19942;-96
2022/07/30 06:54:51;;;;;;;;;;;24.00;72.20;;;;;;4937481;29;19949;-96
2022/07/30 06:57:17;;;;;;;;;;;24.20;71.20;;;;;;4920571;29;20002;-96
2022/07/30 06:59:43;;;;;;;;;;;24.30;70.60;;;;;;4937873;29;19948;-96
2022/07/30 07:02:09;;;;;;;;;;;24.30;70.30;;;;;;4920102;29;20006;-96
2022/07/30 07:04:35;;;;;;;;;;;24.30;69.80;;;;;;4915712;29;19991;-96
2022/07/30 07:07:01;;;;;;;;;;;24.40;70.00;;;;;;4938175;29;19988;-96
2022/07/30 07:09:27;;;;;;;;;;;24.40;69.50;;;;;;4937684;29;19948;-96
2022/07/30 07:11:52;;;;;;;;;;;24.40;69.00;;;;;;4939909;29;19954;-96
2022/07/30 07:14:18;;;;;;;;;;;24.40;69.10;;;;;;4943801;29;19966;-96
2022/07/30 07:16:53;;;;;;;;;;;24.50;68.90;;;;;;4938432;29;19958;-96
2022/07/30 07:19:23;;;;;;;;;;;24.50;69.10;;;;;;4937677;29;19938;-96
2022/07/30 07:21:49;;;;;;;;;;;24.60;68.60;;;;;;4936972;29;19970;-96
2022/07/30 07:24:14;;;;;;;;;;;24.70;68.50;;;;;;4937280;29;19964;-96
2022/07/30 07:27:03;;;;;;;;;;;24.70;68.30;;;;;;4936678;29;20405;-96
2022/07/30 07:29:35;;;;;;;;;;;24.80;67.50;;;;;;4927378;29;19950;-96
2022/07/30 07:32:19;;;;;;;;;;;24.80;67.10;;;;;;4936794;29;19988;-96
2022/07/30 07:34:47;;;;;;;;;;;24.90;66.30;;;;;;4937187;29;19953;-96
2022/07/30 07:37:16;;;;;;;;;;;24.90;66.20;;;;;;4936797;29;19964;-96
2022/07/30 07:39:42;;;;;;;;;;;24.90;66.90;;;;;;4937127;29;19957;-96
2022/07/30 07:42:19;;;;;;;;;;;25.00;68.10;;;;;;4936663;29;19957;-96
2022/07/30 07:45:04;;;;;;;;;;;25.10;67.80;;;;;;4936418;29;19947;-96
2022/07/30 07:47:52;;;;;;;;;;;25.20;67.30;;;;;;4935778;29;19983;-96
2022/07/30 07:50:19;;;;;;;;;;;25.40;66.50;;;;;;4921330;29;19946;-95
2022/07/30 07:52:44;;;;;;;;;;;25.40;65.80;;;;;;4940542;29;19952;-96
2022/07/30 07:55:10;;;;;;;;;;;25.50;66.30;;;;;;4924057;29;20293;-96
2022/07/30 07:57:43;;;;;;;;;;;25.50;66.00;;;;;;4940242;29;19947;-96
2022/07/30 08:00:09;;;;;;;;;;;25.60;65.00;;;;;;4940370;29;20438;-96
2022/07/30 08:02:35;;;;;;;;;;;25.70;65.40;;;;;;4940856;29;19945;-96
2022/07/30 08:05:01;;;;;;;;;;;25.70;65.80;;;;;;4940221;29;20447;-95
2022/07/30 08:07:27;;;;;;;;;;;25.70;66.40;;;;;;4940763;29;19968;-96
2022/07/30 08:10:00;;;;;;;;;;;25.80;66.00;;;;;;4940072;29;20004;-96
2022/07/30 08:12:26;;;;;;;;;;;25.90;65.60;;;;;;4940693;29;19944;-96
2022/07/30 08:14:52;;;;;;;;;;;26.00;64.60;;;;;;4940362;29;19945;-96
2022/07/30 08:17:18;;;;;;;;;;;26.00;65.10;;;;;;4923658;29;19952;-96
2022/07/30 08:19:44;;;;;;;;;;;26.10;64.70;;;;;;4939951;29;19946;-95
2022/07/30 08:22:13;;;;;;;;;;;26.10;64.10;;;;;;4940143;29;20405;-96
2022/07/30 08:24:39;;;;;;;;;;;26.10;63.90;;;;;;4940177;29;19974;-96
2022/07/30 08:27:05;;;;;;;;;;;26.10;65.50;;;;;;4939871;29;20375;-96
2022/07/30 08:29:31;;;;;;;;;;;26.20;65.10;;;;;;4940125;29;20320;-96
2022/07/30 08:31:57;;;;;;;;;;;26.20;65.00;;;;;;4940073;29;19947;-96
2022/07/30 08:34:29;;;;;;;;;;;26.30;64.70;;;;;;4939729;29;19988;-96
2022/07/30 08:37:13;;;;;;;;;;;26.40;63.40;;;;;;4939766;29;19968;-96
2022/07/30 08:39:39;;;;;;;;;;;26.50;61.50;;;;;;4940093;29;19947;-96
2022/07/30 08:42:15;;;;;;;;;;;26.60;61.90;;;;;;4939568;29;19964;-96
2022/07/30 08:44:47;;;;;;;;;;;26.80;62.20;;;;;;4922905;29;20406;-96
2022/07/30 08:50:45;;;;;;;;;;;27.10;61.70;;;;;;4931783;29;19952;-96
2022/07/30 08:56:20;;;;;;;;;;;27.10;60.10;;;;;;4913531;29;19968;-96
2022/07/30 08:59:15;;;;;;;;;;;27.00;60.60;;;;;;4924357;29;19951;-96
2022/07/30 09:01:56;;;;;;;;;;;27.10;60.50;;;;;;4938490;29;19976;-96
2022/07/30 09:07:48;;;;;;;;;;;27.20;60.40;;;;;;4939513;29;20035;-96
2022/07/30 09:10:29;;;;;;;;;;;27.20;59.00;;;;;;4900679;29;20399;-96
2022/07/30 09:12:55;;;;;;;;;;;27.20;61.20;;;;;;4901300;29;20282;-96
2022/07/30 09:15:49;;;;;;;;;;;27.20;59.30;;;;;;4900878;29;19940;-96
2022/07/30 09:18:34;;;;;;;;;;;27.10;59.50;;;;;;4893653;29;19944;-96
2022/07/30 09:21:31;;;;;;;;;;;27.20;59.90;;;;;;4885885;29;20001;-96
2022/07/30 09:24:20;;;;;;;;;;;27.20;60.30;;;;;;4902304;29;19982;-96
2022/07/30 09:27:24;;;;;;;;;;;27.20;57.60;;;;;;4845457;29;19974;-96
2022/07/30 09:30:21;;;;;;;;;;;27.40;58.80;;;;;;4826222;29;19997;-96
2022/07/30 09:33:26;;;;;;;;;;;27.70;57.50;;;;;;4826122;29;19952;-96
2022/07/30 09:36:05;;;;;;;;;;;27.70;56.50;;;;;;4787795;29;19971;-96
2022/07/30 09:38:58;;;;;;;;;;;27.80;56.30;;;;;;4830425;29;19959;-96
2022/07/30 09:41:37;;;;;;;;;;;27.80;56.20;;;;;;4921540;29;19969;-96
2022/07/30 09:44:03;;;;;;;;;;;27.90;56.10;;;;;;4921471;29;20044;-96
2022/07/30 09:46:43;;;;;;;;;;;27.90;57.40;;;;;;4938918;29;19953;-96
2022/07/30 09:49:13;;;;;;;;;;;28.00;57.40;;;;;;4938992;29;19952;-96
2022/07/30 09:51:39;;;;;;;;;;;27.90;56.40;;;;;;4938349;29;19979;-96
2022/07/30 09:54:04;;;;;;;;;;;27.90;57.00;;;;;;4938579;29;20038;-96
2022/07/30 09:56:30;;;;;;;;;;;28.10;55.20;;;;;;4921039;29;19948;-96
2022/07/30 09:58:55;;;;;;;;;;;28.20;54.00;;;;;;4939044;29;19952;-96
2022/07/30 10:01:21;;;;;;;;;;;28.10;53.60;;;;;;4938384;29;20115;-96
2022/07/30 10:03:47;;;;;;;;;;;28.20;55.20;;;;;;4938693;29;19995;-96
2022/07/30 10:06:12;;;;;;;;;;;28.30;53.30;;;;;;4938040;29;19952;-96
2022/07/30 10:08:40;;;;;;;;;;;28.30;52.10;;;;;;4938293;29;19945;-96
2022/07/30 10:11:08;;;;;;;;;;;28.30;50.60;;;;;;4937962;29;20420;-96
2022/07/30 10:13:34;;;;;;;;;;;28.50;51.00;;;;;;4938151;29;19946;-96
2022/07/30 10:16:00;;;;;;;;;;;28.60;51.90;;;;;;4938170;29;19975;-96
2022/07/30 10:18:26;;;;;;;;;;;28.80;49.60;;;;;;4938390;29;19952;-96
2022/07/30 10:20:52;;;;;;;;;;;28.70;49.50;;;;;;4937773;29;20059;-96
2022/07/30 10:23:18;;;;;;;;;;;28.50;50.70;;;;;;4920711;29;20392;-96
2022/07/30 10:25:44;;;;;;;;;;;28.70;50.80;;;;;;4938017;29;20318;-96
2022/07/30 10:28:10;;;;;;;;;;;28.80;50.10;;;;;;4937961;29;19945;-96
2022/07/30 10:30:36;;;;;;;;;;;28.80;49.50;;;;;;4937956;29;19943;-96
2022/07/30 10:33:02;;;;;;;;;;;28.80;50.00;;;;;;4937573;29;20417;-96
2022/07/30 10:35:28;;;;;;;;;;;29.00;50.50;;;;;;4937743;29;19950;-96
2022/07/30 10:37:55;;;;;;;;;;;29.00;49.60;;;;;;4937810;29;19940;-96
2022/07/30 10:40:25;;;;;;;;;;;28.90;50.10;;;;;;4937504;29;19966;-96
2022/07/30 10:42:57;;;;;;;;;;;29.10;51.10;;;;;;4937697;29;19950;-96
2022/07/30 10:45:26;;;;;;;;;;;29.40;50.30;;;;;;4920385;29;19950;-96
2022/07/30 10:47:52;;;;;;;;;;;29.50;49.70;;;;;;4937429;29;20469;-96
2022/07/30 10:50:21;;;;;;;;;;;29.50;50.10;;;;;;4937611;29;19952;-96
2022/07/30 10:52:53;;;;;;;;;;;29.60;51.20;;;;;;4937592;29;19944;-96
2022/07/30 10:55:24;;;;;;;;;;;29.70;49.30;;;;;;4920296;29;19948;-96
2022/07/30 10:58:01;;;;;;;;;;;29.80;47.50;;;;;;4920818;29;19950;-96
2022/07/30 11:00:32;;;;;;;;;;;29.80;47.80;;;;;;4939407;29;19966;-96
2022/07/30 11:03:10;;;;;;;;;;;29.80;48.30;;;;;;4921275;29;19956;-96
2022/07/30 11:05:41;;;;;;;;;;;29.80;49.20;;;;;;4938025;29;20030;-96
2022/07/30 11:08:26;;;;;;;;;;;29.90;48.10;;;;;;4920498;29;20472;-96
2022/07/30 11:10:54;;;;;;;;;;;30.00;46.90;;;;;;4938230;29;19960;-96
2022/07/30 11:13:48;;;;;;;;;;;30.00;47.70;;;;;;4921134;29;19945;-96
2022/07/30 11:16:19;;;;;;;;;;;30.10;48.90;;;;;;4922657;29;19945;-96
2022/07/30 11:19:03;;;;;;;;;;;30.20;47.80;;;;;;4921392;29;19967;-96
2022/07/30 11:21:29;;;;;;;;;;;30.20;47.10;;;;;;4920685;29;19961;-96
2022/07/30 11:23:54;;;;;;;;;;;30.40;46.80;;;;;;4936798;29;20024;-96
2022/07/30 11:26:47;;;;;;;;;;;30.40;46.60;;;;;;4936961;29;20095;-96
2022/07/30 11:29:52;;;;;;;;;;;30.70;46.60;;;;;;4937260;29;20010;-96
2022/07/30 11:32:25;;;;;;;;;;;31.00;45.30;;;;;;4860092;29;19986;-96
2022/07/30 11:35:14;;;;;;;;;;;31.30;44.30;;;;;;4860158;29;19941;-96
2022/07/30 11:37:59;;;;;;;;;;;31.40;44.30;;;;;;4911852;29;19946;-96
2022/07/30 11:40:25;;;;;;;;;;;31.50;44.00;;;;;;4921206;29;19974;-96
2022/07/30 11:43:21;;;;;;;;;;;;;;;;;;;;;
2022/07/30 11:45:48;;;;;;;;;;;31.80;43.10;;;;;;4937882;29;19942;-96
2022/07/30 11:48:19;;;;;;;;;;;32.20;44.00;;;;;;4906713;29;19984;-96
2022/07/30 11:50:45;;;;;;;;;;;32.30;43.10;;;;;;4918128;29;20359;-96
2022/07/30 11:53:23;;;;;;;;;;;32.20;42.30;;;;;;4917832;29;19940;-96
2022/07/30 11:55:50;;;;;;;;;;;31.80;43.80;;;;;;4900015;29;19951;-96
2022/07/30 11:58:24;;;;;;;;;;;31.60;44.20;;;;;;4917429;29;19943;-96
2022/07/30 12:03:55;;;;;;;;;;;31.70;44.70;;;;;;4917187;29;20402;-96
2022/07/30 12:06:22;;;;;;;;;;;32.10;43.90;;;;;;4918509;29;20392;-96
2022/07/30 12:08:50;;;;;;;;;;;32.10;42.70;;;;;;4917632;29;19945;-96
2022/07/30 12:11:16;;;;;;;;;;;32.00;42.60;;;;;;4900412;29;19949;-96
2022/07/30 12:14:17;;;;;;;;;;;31.90;43.60;;;;;;4900319;29;19951;-96
2022/07/30 12:16:57;;;;;;;;;;;32.40;41.80;;;;;;4858744;29;19953;-96
2022/07/30 12:19:45;;;;;;;;;;;33.30;42.10;;;;;;4910423;29;20420;-96
2022/07/30 12:22:11;;;;;;;;;;;33.30;38.60;;;;;;4917600;29;19957;-96
2022/07/30 12:25:05;;;;;;;;;;;33.70;38.70;;;;;;4901293;29;19957;-96
2022/07/30 12:27:31;;;;;;;;;;;33.60;38.00;;;;;;4900158;29;20321;-96
2022/07/30 12:29:59;;;;;;;;;;;33.20;39.50;;;;;;4917741;29;19947;-96
2022/07/30 12:32:25;;;;;;;;;;;33.20;39.40;;;;;;4917564;29;20317;-96
2022/07/30 12:34:57;;;;;;;;;;;33.70;38.70;;;;;;4917461;29;19979;-96
2022/07/30 12:37:23;;;;;;;;;;;34.30;37.30;;;;;;4919549;29;19965;-96
2022/07/30 12:40:04;;;;;;;;;;;34.40;35.20;;;;;;4921108;29;19943;-96
2022/07/30 12:42:33;;;;;;;;;;;34.00;35.70;;;;;;4920693;29;19946;-96
2022/07/30 12:44:59;;;;;;;;;;;33.30;37.00;;;;;;4920822;29;19949;-96
2022/07/30 12:47:26;;;;;;;;;;;33.70;36.40;;;;;;4941877;23;19985;-96
2022/07/30 12:49:52;;;;;;;;;;;34.40;35.70;;;;;;4939919;29;19946;-96
2022/07/30 12:52:30;;;;;;;;;;;34.70;32.90;;;;;;4938286;29;20394;-96
2022/07/30 12:55:11;;;;;;;;;;;34.60;34.20;;;;;;4939908;29;20376;-96
2022/07/30 12:57:56;;;;;;;;;;;34.80;33.90;;;;;;4939227;29;19941;-96
2022/07/30 13:00:26;;;;;;;;;;;35.20;32.80;;;;;;4939912;29;20470;-96
2022/07/30 13:02:52;;;;;;;;;;;35.10;32.80;;;;;;4939623;29;19951;-96
2022/07/30 13:05:46;;;;;;;;;;;34.80;32.60;;;;;;4939819;29;19938;-96
2022/07/30 13:08:13;;;;;;;;;;;34.40;32.90;;;;;;4920250;29;19941;-96
2022/07/30 13:11:02;;;;;;;;;;;;;;;;;;;;;
2022/07/30 13:13:29;;;;;;;;;;;36.50;30.30;;;;;;4939038;29;20438;-96
2022/07/30 13:15:59;;;;;;;;;;;37.20;29.60;;;;;;4939318;29;19953;-96
2022/07/30 13:18:25;;;;;;;;;;;37.10;29.90;;;;;;4939097;29;19946;-96
2022/07/30 13:20:50;;;;;;;;;;;36.50;31.00;;;;;;4939143;29;19985;-96
2022/07/30 13:23:16;;;;;;;;;;;36.30;30.30;;;;;;4939003;29;19939;-96
2022/07/30 13:25:41;;;;;;;;;;;36.30;30.40;;;;;;4922645;29;20005;-96
2022/07/30 13:28:07;;;;;;;;;;;36.40;30.50;;;;;;4938813;29;19938;-96
2022/07/30 13:30:32;;;;;;;;;;;36.20;31.10;;;;;;4939070;29;19966;-96
2022/07/30 13:32:58;;;;;;;;;;;36.70;31.40;;;;;;4937477;29;20005;-96
2022/07/30 13:35:23;;;;;;;;;;;37.80;30.50;;;;;;4922025;29;19948;-96
2022/07/30 13:37:49;;;;;;;;;;;38.70;28.20;;;;;;4938648;29;19935;-96
2022/07/30 13:40:14;;;;;;;;;;;39.00;26.40;;;;;;4938816;29;19936;-96
2022/07/30 13:42:41;;;;;;;;;;;39.10;25.00;;;;;;4938547;29;20094;-96
2022/07/30 13:45:06;;;;;;;;;;;39.30;26.70;;;;;;4937229;29;20437;-96
2022/07/30 13:47:32;;;;;;;;;;;40.20;25.20;;;;;;4937868;29;20045;-96
2022/07/30 13:49:58;;;;;;;;;;;40.50;24.60;;;;;;4938996;29;20030;-96
2022/07/30 13:52:23;;;;;;;;;;;40.80;23.80;;;;;;4938681;29;19986;-96
2022/07/30 13:54:51;;;;;;;;;;;41.00;24.20;;;;;;4938634;29;20326;-96
2022/07/30 13:57:16;;;;;;;;;;;41.70;23.80;;;;;;4939287;29;20032;-96
2022/07/30 13:59:42;;;;;;;;;;;42.30;23.30;;;;;;4939654;29;19992;-96
2022/07/30 14:02:08;;;;;;;;;;;42.10;23.20;;;;;;4939071;29;19957;-96
2022/07/30 14:04:33;;;;;;;;;;;42.10;23.50;;;;;;4939118;29;19937;-96
2022/07/30 14:06:59;;;;;;;;;;;41.90;23.60;;;;;;4938639;29;20361;-96
2022/07/30 14:09:24;;;;;;;;;;;39.80;25.90;;;;;;4938460;29;19937;-96
2022/07/30 14:11:50;;;;;;;;;;;39.10;27.30;;;;;;4938180;29;19992;-96
2022/07/30 14:14:16;;;;;;;;;;;39.40;27.30;;;;;;4938450;29;19961;-96
2022/07/30 14:16:42;;;;;;;;;;;40.10;26.40;;;;;;4938168;29;19987;-96
2022/07/30 14:19:07;;;;;;;;;;;40.70;25.40;;;;;;4938396;29;19944;-96
2022/07/30 14:21:33;;;;;;;;;;;40.10;25.70;;;;;;4938026;29;20374;-96
2022/07/30 14:23:58;;;;;;;;;;;39.90;26.20;;;;;;4937165;29;19955;-96
2022/07/30 14:26:24;;;;;;;;;;;38.00;28.60;;;;;;4938061;29;20412;-96
2022/07/30 14:28:50;;;;;;;;;;;37.80;29.50;;;;;;4938289;29;19944;-96
2022/07/30 14:31:15;;;;;;;;;;;38.50;28.40;;;;;;4938188;29;19935;-96
2022/07/30 14:33:41;;;;;;;;;;;37.60;29.50;;;;;;4938529;29;19942;-96
2022/07/30 14:36:07;;;;;;;;;;;37.20;30.70;;;;;;4937527;29;20434;-96
2022/07/30 14:38:32;;;;;;;;;;;37.20;30.40;;;;;;4937807;29;19946;-96
2022/07/30 14:40:58;;;;;;;;;;;37.70;29.60;;;;;;4937731;29;19961;-96
2022/07/30 14:43:26;;;;;;;;;;;37.70;30.20;;;;;;4937987;29;19946;-96
2022/07/30 14:45:52;;;;;;;;;;;38.20;29.60;;;;;;4937678;29;19939;-96